sensor_id;sensor_type;location;lat;lon;timestamp;temperature;humidity
26575;DHT22;67165;50.256;10.978;2023-06-10T00:00:00;15.80;98.00
26575;DHT22;67165;50.256;10.978;2023-06-10T00:02:26;15.80;98.00
26575;DHT22;67165;50.256;10.978;2023-06-10T00:04:52;15.80;98.00
26575;DHT22;67165;50.256;10.978;2023-06-10T00:07:18;15.70;98.00
26575;DHT22;67165;50.256;10.978;2023-06-10T00:09:44;15.70;98.00
26575;DHT22;67165;50.256;10.978;2023-06-10T00:12:10;15.70;98.00
26575;DHT22;67165;50.256;10.978;2023-06-10T00:14:37;15.70;98.00
26575;DHT22;67165;50.256;10.978;2023-06-10T00:17:04;15.60;98.00
26575;DHT22;67165;50.256;10.978;2023-06-10T00:19:29;15.60;98.00
26575;DHT22;67165;50.256;10.978;2023-06-10T00:21:56;15.50;98.00
26575;DHT22;67165;50.256;10.978;2023-06-10T00:24:22;15.50;98.00
26575;DHT22;67165;50.256;10.978;2023-06-10T00:26:48;15.40;98.00
26575;DHT22;67165;50.256;10.978;2023-06-10T00:29:13;15.40;98.00
26575;DHT22;67165;50.256;10.978;2023-06-10T00:31:40;15.40;98.00
26575;DHT22;67165;50.256;10.978;2023-06-10T00:34:06;15.30;98.00
26575;DHT22;67165;50.256;10.978;2023-06-10T00:36:32;15.30;98.00
26575;DHT22;67165;50.256;10.978;2023-06-10T00:38:58;15.30;98.00
26575;DHT22;67165;50.256;10.978;2023-06-10T00:41:24;15.30;98.00
26575;DHT22;67165;50.256;10.978;2023-06-10T00:43:52;15.20;98.00
26575;DHT22;67165;50.256;10.978;2023-06-10T00:46:18;15.20;98.00
26575;DHT22;67165;50.256;10.978;2023-06-10T00:48:44;15.20;98.00
26575;DHT22;67165;50.256;10.978;2023-06-10T00:51:10;15.10;98.00
26575;DHT22;67165;50.256;10.978;2023-06-10T00:53:40;15.00;98.00
26575;DHT22;67165;50.256;10.978;2023-06-10T00:56:07;15.00;98.00
26575;DHT22;67165;50.256;10.978;2023-06-10T00:58:33;14.90;98.00
26575;DHT22;67165;50.256;10.978;2023-06-10T01:00:59;14.90;98.00
26575;DHT22;67165;50.256;10.978;2023-06-10T01:03:24;14.90;98.00
26575;DHT22;67165;50.256;10.978;2023-06-10T01:11:47;14.70;98.00
26575;DHT22;67165;50.256;10.978;2023-06-10T01:14:13;14.70;98.00
26575;DHT22;67165;50.256;10.978;2023-06-10T01:16:42;14.70;98.00
26575;DHT22;67165;50.256;10.978;2023-06-10T01:19:11;14.60;98.00
26575;DHT22;67165;50.256;10.978;2023-06-10T01:21:38;14.60;98.00
26575;DHT22;67165;50.256;10.978;2023-06-10T01:24:05;14.60;98.00
26575;DHT22;67165;50.256;10.978;2023-06-10T01:26:37;14.60;98.00
26575;DHT22;67165;50.256;10.978;2023-06-10T01:29:14;14.60;98.00
26575;DHT22;67165;50.256;10.978;2023-06-10T01:31:46;14.50;98.00
26575;DHT22;67165;50.256;10.978;2023-06-10T01:34:17;14.50;98.00
26575;DHT22;67165;50.256;10.978;2023-06-10T01:36:46;14.50;98.00
26575;DHT22;67165;50.256;10.978;2023-06-10T01:39:15;14.40;98.00
26575;DHT22;67165;50.256;10.978;2023-06-10T01:41:42;14.40;98.00
26575;DHT22;67165;50.256;10.978;2023-06-10T01:44:08;14.40;98.00
26575;DHT22;67165;50.256;10.978;2023-06-10T01:46:34;14.30;98.00
26575;DHT22;67165;50.256;10.978;2023-06-10T01:49:00;14.30;98.00
26575;DHT22;67165;50.256;10.978;2023-06-10T01:51:25;14.30;98.00
26575;DHT22;67165;50.256;10.978;2023-06-10T01:53:51;14.30;98.00
26575;DHT22;67165;50.256;10.978;2023-06-10T01:56:16;14.20;98.00
26575;DHT22;67165;50.256;10.978;2023-06-10T01:58:48;14.20;98.00
26575;DHT22;67165;50.256;10.978;2023-06-10T02:01:14;14.20;98.00
26575;DHT22;67165;50.256;10.978;2023-06-10T02:03:39;14.10;98.00
26575;DHT22;67165;50.256;10.978;2023-06-10T02:06:06;14.10;98.00
26575;DHT22;67165;50.256;10.978;2023-06-10T02:08:31;14.00;98.00
26575;DHT22;67165;50.256;10.978;2023-06-10T02:10:57;14.00;98.00
26575;DHT22;67165;50.256;10.978;2023-06-10T02:13:22;13.90;98.00
26575;DHT22;67165;50.256;10.978;2023-06-10T02:15:48;13.90;98.00
26575;DHT22;67165;50.256;10.978;2023-06-10T02:18:14;13.90;98.00
26575;DHT22;67165;50.256;10.978;2023-06-10T02:20:39;13.90;98.00
26575;DHT22;67165;50.256;10.978;2023-06-10T02:23:05;13.80;98.00
26575;DHT22;67165;50.256;10.978;2023-06-10T02:25:30;13.80;98.00
26575;DHT22;67165;50.256;10.978;2023-06-10T02:27:56;13.80;98.00
26575;DHT22;67165;50.256;10.978;2023-06-10T02:30:22;13.70;98.00
26575;DHT22;67165;50.256;10.978;2023-06-10T02:32:48;13.70;98.00
26575;DHT22;67165;50.256;10.978;2023-06-10T02:35:14;13.70;98.00
26575;DHT22;67165;50.256;10.978;2023-06-10T02:37:40;13.70;98.00
26575;DHT22;67165;50.256;10.978;2023-06-10T02:40:07;13.70;98.00
26575;DHT22;67165;50.256;10.978;2023-06-10T02:42:33;13.60;98.00
26575;DHT22;67165;50.256;10.978;2023-06-10T02:44:58;13.60;98.00
26575;DHT22;67165;50.256;10.978;2023-06-10T02:47:24;13.60;98.00
26575;DHT22;67165;50.256;10.978;2023-06-10T02:49:50;13.60;98.00
26575;DHT22;67165;50.256;10.978;2023-06-10T02:52:15;13.50;98.00
26575;DHT22;67165;50.256;10.978;2023-06-10T02:54:41;13.50;98.00
26575;DHT22;67165;50.256;10.978;2023-06-10T02:57:07;13.50;98.00
26575;DHT22;67165;50.256;10.978;2023-06-10T02:59:33;13.50;98.00
26575;DHT22;67165;50.256;10.978;2023-06-10T03:01:58;13.40;98.00
26575;DHT22;67165;50.256;10.978;2023-06-10T03:04:26;13.40;98.00
26575;DHT22;67165;50.256;10.978;2023-06-10T03:06:54;13.40;98.00
26575;DHT22;67165;50.256;10.978;2023-06-10T03:09:20;13.40;98.00
26575;DHT22;67165;50.256;10.978;2023-06-10T03:11:46;13.30;98.00
26575;DHT22;67165;50.256;10.978;2023-06-10T03:14:11;13.30;98.00
26575;DHT22;67165;50.256;10.978;2023-06-10T03:16:37;13.30;98.00
26575;DHT22;67165;50.256;10.978;2023-06-10T03:19:06;13.20;98.00
26575;DHT22;67165;50.256;10.978;2023-06-10T03:21:33;13.20;98.00
26575;DHT22;67165;50.256;10.978;2023-06-10T03:23:58;13.20;98.00
26575;DHT22;67165;50.256;10.978;2023-06-10T03:26:25;13.20;98.00
26575;DHT22;67165;50.256;10.978;2023-06-10T03:28:51;13.20;98.00
26575;DHT22;67165;50.256;10.978;2023-06-10T03:31:17;13.20;98.00
26575;DHT22;67165;50.256;10.978;2023-06-10T03:33:43;13.20;98.00
26575;DHT22;67165;50.256;10.978;2023-06-10T03:36:08;13.20;98.00
26575;DHT22;67165;50.256;10.978;2023-06-10T03:38:35;13.20;98.00
26575;DHT22;67165;50.256;10.978;2023-06-10T03:41:01;13.20;98.00
26575;DHT22;67165;50.256;10.978;2023-06-10T03:43:26;13.20;98.00
26575;DHT22;67165;50.256;10.978;2023-06-10T03:45:53;13.20;98.00
26575;DHT22;67165;50.256;10.978;2023-06-10T03:48:18;13.30;98.00
26575;DHT22;67165;50.256;10.978;2023-06-10T03:50:44;13.30;98.00
26575;DHT22;67165;50.256;10.978;2023-06-10T03:53:10;13.40;98.00
26575;DHT22;67165;50.256;10.978;2023-06-10T03:55:35;13.40;98.00
26575;DHT22;67165;50.256;10.978;2023-06-10T03:58:01;13.40;98.00
26575;DHT22;67165;50.256;10.978;2023-06-10T04:00:27;13.50;98.00
26575;DHT22;67165;50.256;10.978;2023-06-10T04:02:54;13.50;98.00
26575;DHT22;67165;50.256;10.978;2023-06-10T04:05:23;13.70;98.00
26575;DHT22;67165;50.256;10.978;2023-06-10T04:07:49;14.10;98.00
26575;DHT22;67165;50.256;10.978;2023-06-10T04:10:15;14.50;98.00
26575;DHT22;67165;50.256;10.978;2023-06-10T04:12:41;15.20;98.00
26575;DHT22;67165;50.256;10.978;2023-06-10T04:15:07;15.80;98.00
26575;DHT22;67165;50.256;10.978;2023-06-10T04:17:33;16.40;98.00
26575;DHT22;67165;50.256;10.978;2023-06-10T04:19:59;17.00;98.00
26575;DHT22;67165;50.256;10.978;2023-06-10T04:22:26;17.50;98.00
26575;DHT22;67165;50.256;10.978;2023-06-10T04:24:52;17.80;98.00
26575;DHT22;67165;50.256;10.978;2023-06-10T04:27:18;18.40;98.00
26575;DHT22;67165;50.256;10.978;2023-06-10T04:29:43;18.70;98.00
26575;DHT22;67165;50.256;10.978;2023-06-10T04:32:09;18.80;98.00
26575;DHT22;67165;50.256;10.978;2023-06-10T04:34:34;19.20;98.00
26575;DHT22;67165;50.256;10.978;2023-06-10T04:37:00;19.70;98.00
26575;DHT22;67165;50.256;10.978;2023-06-10T04:39:26;20.10;98.00
26575;DHT22;67165;50.256;10.978;2023-06-10T04:41:52;20.30;98.00
26575;DHT22;67165;50.256;10.978;2023-06-10T04:44:17;20.60;98.00
26575;DHT22;67165;50.256;10.978;2023-06-10T04:46:44;20.80;98.00
26575;DHT22;67165;50.256;10.978;2023-06-10T04:49:10;20.80;98.00
26575;DHT22;67165;50.256;10.978;2023-06-10T04:51:35;20.60;98.00
26575;DHT22;67165;50.256;10.978;2023-06-10T04:54:01;20.80;98.00
26575;DHT22;67165;50.256;10.978;2023-06-10T04:56:30;20.80;98.00
26575;DHT22;67165;50.256;10.978;2023-06-10T04:58:59;21.30;98.00
26575;DHT22;67165;50.256;10.978;2023-06-10T05:01:25;21.10;98.00
26575;DHT22;67165;50.256;10.978;2023-06-10T05:03:51;21.10;98.00
26575;DHT22;67165;50.256;10.978;2023-06-10T05:06:16;21.50;98.00
26575;DHT22;67165;50.256;10.978;2023-06-10T05:08:42;21.60;98.00
26575;DHT22;67165;50.256;10.978;2023-06-10T05:11:08;21.50;98.00
26575;DHT22;67165;50.256;10.978;2023-06-10T05:13:34;21.30;98.00
26575;DHT22;67165;50.256;10.978;2023-06-10T05:15:59;21.70;98.00
26575;DHT22;67165;50.256;10.978;2023-06-10T05:18:25;21.50;98.00
26575;DHT22;67165;50.256;10.978;2023-06-10T05:20:51;21.50;98.00
26575;DHT22;67165;50.256;10.978;2023-06-10T05:23:16;21.70;98.00
26575;DHT22;67165;50.256;10.978;2023-06-10T05:25:42;21.80;98.00
26575;DHT22;67165;50.256;10.978;2023-06-10T05:28:08;21.90;98.00
26575;DHT22;67165;50.256;10.978;2023-06-10T05:30:37;22.10;98.00
26575;DHT22;67165;50.256;10.978;2023-06-10T05:33:03;22.00;98.00
26575;DHT22;67165;50.256;10.978;2023-06-10T05:35:29;22.00;98.00
26575;DHT22;67165;50.256;10.978;2023-06-10T05:37:54;22.10;98.00
26575;DHT22;67165;50.256;10.978;2023-06-10T05:40:20;22.00;98.00
26575;DHT22;67165;50.256;10.978;2023-06-10T05:42:46;22.00;98.00
26575;DHT22;67165;50.256;10.978;2023-06-10T05:45:12;22.00;98.00
26575;DHT22;67165;50.256;10.978;2023-06-10T05:47:38;22.20;98.00
26575;DHT22;67165;50.256;10.978;2023-06-10T05:50:04;22.40;98.00
26575;DHT22;67165;50.256;10.978;2023-06-10T05:52:33;22.80;98.00
26575;DHT22;67165;50.256;10.978;2023-06-10T05:54:59;22.60;98.00
26575;DHT22;67165;50.256;10.978;2023-06-10T05:57:25;22.40;98.00
26575;DHT22;67165;50.256;10.978;2023-06-10T05:59:51;22.70;98.00
26575;DHT22;67165;50.256;10.978;2023-06-10T06:02:17;22.70;98.00
26575;DHT22;67165;50.256;10.978;2023-06-10T06:04:43;22.70;98.00
26575;DHT22;67165;50.256;10.978;2023-06-10T06:07:09;22.90;98.00
26575;DHT22;67165;50.256;10.978;2023-06-10T06:09:35;23.00;98.00
26575;DHT22;67165;50.256;10.978;2023-06-10T06:12:00;23.30;98.00
26575;DHT22;67165;50.256;10.978;2023-06-10T06:14:26;23.30;98.00
26575;DHT22;67165;50.256;10.978;2023-06-10T06:16:52;23.30;98.00
26575;DHT22;67165;50.256;10.978;2023-06-10T06:19:17;23.30;98.00
26575;DHT22;67165;50.256;10.978;2023-06-10T06:21:43;23.40;98.00
26575;DHT22;67165;50.256;10.978;2023-06-10T06:24:09;23.90;98.00
26575;DHT22;67165;50.256;10.978;2023-06-10T06:26:34;23.50;98.00
26575;DHT22;67165;50.256;10.978;2023-06-10T06:29:00;23.60;98.00
26575;DHT22;67165;50.256;10.978;2023-06-10T06:31:26;23.70;98.00
26575;DHT22;67165;50.256;10.978;2023-06-10T06:33:51;24.00;98.00
26575;DHT22;67165;50.256;10.978;2023-06-10T06:36:17;24.20;98.00
26575;DHT22;67165;50.256;10.978;2023-06-10T06:38:42;24.30;98.00
26575;DHT22;67165;50.256;10.978;2023-06-10T06:41:08;24.50;98.00
26575;DHT22;67165;50.256;10.978;2023-06-10T06:43:34;24.30;98.00
26575;DHT22;67165;50.256;10.978;2023-06-10T06:45:59;24.40;98.00
26575;DHT22;67165;50.256;10.978;2023-06-10T06:48:25;24.10;98.00
26575;DHT22;67165;50.256;10.978;2023-06-10T06:50:51;24.40;98.00
26575;DHT22;67165;50.256;10.978;2023-06-10T06:53:17;24.70;98.00
26575;DHT22;67165;50.256;10.978;2023-06-10T06:55:42;25.00;98.00
26575;DHT22;67165;50.256;10.978;2023-06-10T06:58:08;25.00;98.00
26575;DHT22;67165;50.256;10.978;2023-06-10T07:00:33;25.20;97.50
26575;DHT22;67165;50.256;10.978;2023-06-10T07:02:59;25.30;96.80
26575;DHT22;67165;50.256;10.978;2023-06-10T07:05:25;25.10;96.50
26575;DHT22;67165;50.256;10.978;2023-06-10T07:07:53;24.90;97.50
26575;DHT22;67165;50.256;10.978;2023-06-10T07:10:21;24.50;98.00
26575;DHT22;67165;50.256;10.978;2023-06-10T07:12:47;24.70;98.00
26575;DHT22;67165;50.256;10.978;2023-06-10T07:15:13;25.00;97.90
26575;DHT22;67165;50.256;10.978;2023-06-10T07:17:39;25.20;97.90
26575;DHT22;67165;50.256;10.978;2023-06-10T07:20:05;25.30;98.00
26575;DHT22;67165;50.256;10.978;2023-06-10T07:22:30;25.70;96.80
26575;DHT22;67165;50.256;10.978;2023-06-10T07:24:57;25.80;96.40
26575;DHT22;67165;50.256;10.978;2023-06-10T07:27:22;25.70;95.90
26575;DHT22;67165;50.256;10.978;2023-06-10T07:29:48;25.90;95.80
26575;DHT22;67165;50.256;10.978;2023-06-10T07:32:14;26.00;95.70
26575;DHT22;67165;50.256;10.978;2023-06-10T07:34:39;26.10;95.40
26575;DHT22;67165;50.256;10.978;2023-06-10T07:37:05;26.20;96.20
26575;DHT22;67165;50.256;10.978;2023-06-10T07:39:31;26.70;94.90
26575;DHT22;67165;50.256;10.978;2023-06-10T07:41:56;26.70;95.30
26575;DHT22;67165;50.256;10.978;2023-06-10T07:44:23;27.00;93.30
26575;DHT22;67165;50.256;10.978;2023-06-10T07:46:49;27.10;93.10
26575;DHT22;67165;50.256;10.978;2023-06-10T07:49:14;27.20;93.70
26575;DHT22;67165;50.256;10.978;2023-06-10T07:51:40;27.20;93.00
26575;DHT22;67165;50.256;10.978;2023-06-10T07:54:05;27.30;93.90
26575;DHT22;67165;50.256;10.978;2023-06-10T07:56:31;27.60;93.20
26575;DHT22;67165;50.256;10.978;2023-06-10T07:58:57;27.60;92.30
26575;DHT22;67165;50.256;10.978;2023-06-10T08:01:23;26.90;92.50
26575;DHT22;67165;50.256;10.978;2023-06-10T08:03:49;27.00;92.40
26575;DHT22;67165;50.256;10.978;2023-06-10T08:06:15;27.00;92.50
26575;DHT22;67165;50.256;10.978;2023-06-10T08:08:42;27.00;91.90
26575;DHT22;67165;50.256;10.978;2023-06-10T08:11:10;26.70;93.30
26575;DHT22;67165;50.256;10.978;2023-06-10T08:13:36;27.10;93.00
26575;DHT22;67165;50.256;10.978;2023-06-10T08:16:02;27.70;91.40
26575;DHT22;67165;50.256;10.978;2023-06-10T08:18:28;28.00;91.10
26575;DHT22;67165;50.256;10.978;2023-06-10T08:20:54;28.40;90.10
26575;DHT22;67165;50.256;10.978;2023-06-10T08:23:20;28.80;89.80
26575;DHT22;67165;50.256;10.978;2023-06-10T08:25:46;28.70;88.90
26575;DHT22;67165;50.256;10.978;2023-06-10T08:28:12;28.30;89.50
26575;DHT22;67165;50.256;10.978;2023-06-10T08:30:37;27.80;90.10
26575;DHT22;67165;50.256;10.978;2023-06-10T08:33:03;27.60;92.60
26575;DHT22;67165;50.256;10.978;2023-06-10T08:35:29;28.00;92.00
26575;DHT22;67165;50.256;10.978;2023-06-10T08:37:55;28.20;90.50
26575;DHT22;67165;50.256;10.978;2023-06-10T08:40:21;28.80;90.00
26575;DHT22;67165;50.256;10.978;2023-06-10T08:43:00;28.90;88.50
26575;DHT22;67165;50.256;10.978;2023-06-10T08:45:30;28.40;88.50
26575;DHT22;67165;50.256;10.978;2023-06-10T08:48:03;28.20;89.00
26575;DHT22;67165;50.256;10.978;2023-06-10T08:50:35;28.40;88.00
26575;DHT22;67165;50.256;10.978;2023-06-10T08:53:07;28.50;89.50
26575;DHT22;67165;50.256;10.978;2023-06-10T08:55:38;28.30;88.20
26575;DHT22;67165;50.256;10.978;2023-06-10T08:58:06;28.40;89.50
26575;DHT22;67165;50.256;10.978;2023-06-10T09:00:32;28.20;89.20
26575;DHT22;67165;50.256;10.978;2023-06-10T09:02:59;27.90;89.00
26575;DHT22;67165;50.256;10.978;2023-06-10T09:05:27;27.80;88.70
26575;DHT22;67165;50.256;10.978;2023-06-10T09:07:53;27.80;88.90
26575;DHT22;67165;50.256;10.978;2023-06-10T09:10:19;28.00;90.80
26575;DHT22;67165;50.256;10.978;2023-06-10T09:12:45;28.10;90.00
26575;DHT22;67165;50.256;10.978;2023-06-10T09:15:11;28.20;88.30
26575;DHT22;67165;50.256;10.978;2023-06-10T09:17:38;27.90;88.50
26575;DHT22;67165;50.256;10.978;2023-06-10T09:20:07;27.50;89.10
26575;DHT22;67165;50.256;10.978;2023-06-10T09:22:33;27.80;89.30
26575;DHT22;67165;50.256;10.978;2023-06-10T09:25:06;27.60;88.80
26575;DHT22;67165;50.256;10.978;2023-06-10T09:27:47;27.30;90.10
26575;DHT22;67165;50.256;10.978;2023-06-10T09:30:33;27.30;89.60
26575;DHT22;67165;50.256;10.978;2023-06-10T09:33:01;27.50;88.80
26575;DHT22;67165;50.256;10.978;2023-06-10T09:35:29;27.10;88.70
26575;DHT22;67165;50.256;10.978;2023-06-10T09:38:00;27.20;90.00
26575;DHT22;67165;50.256;10.978;2023-06-10T09:40:26;27.00;88.70
26575;DHT22;67165;50.256;10.978;2023-06-10T09:42:57;26.90;88.30
26575;DHT22;67165;50.256;10.978;2023-06-10T09:45:23;26.60;89.30
26575;DHT22;67165;50.256;10.978;2023-06-10T09:47:53;26.50;89.60
26575;DHT22;67165;50.256;10.978;2023-06-10T09:50:19;26.50;89.60
26575;DHT22;67165;50.256;10.978;2023-06-10T09:52:46;26.70;90.10
26575;DHT22;67165;50.256;10.978;2023-06-10T09:55:11;26.50;90.40
26575;DHT22;67165;50.256;10.978;2023-06-10T09:57:37;26.80;90.00
26575;DHT22;67165;50.256;10.978;2023-06-10T10:00:13;26.70;89.60
26575;DHT22;67165;50.256;10.978;2023-06-10T10:02:53;26.60;88.90
26575;DHT22;67165;50.256;10.978;2023-06-10T10:05:22;26.70;89.60
26575;DHT22;67165;50.256;10.978;2023-06-10T10:07:48;26.70;90.20
26575;DHT22;67165;50.256;10.978;2023-06-10T10:10:18;26.70;88.70
26575;DHT22;67165;50.256;10.978;2023-06-10T10:12:46;26.80;89.50
26575;DHT22;67165;50.256;10.978;2023-06-10T10:15:13;27.10;90.00
26575;DHT22;67165;50.256;10.978;2023-06-10T10:17:51;27.00;87.80
26575;DHT22;67165;50.256;10.978;2023-06-10T10:20:22;27.00;88.00
26575;DHT22;67165;50.256;10.978;2023-06-10T10:22:49;27.00;88.10
26575;DHT22;67165;50.256;10.978;2023-06-10T10:25:23;27.00;89.00
26575;DHT22;67165;50.256;10.978;2023-06-10T10:28:10;26.90;88.80
26575;DHT22;67165;50.256;10.978;2023-06-10T10:30:46;27.20;90.50
26575;DHT22;67165;50.256;10.978;2023-06-10T10:33:29;27.50;88.80
26575;DHT22;67165;50.256;10.978;2023-06-10T10:35:56;27.70;88.10
26575;DHT22;67165;50.256;10.978;2023-06-10T10:38:23;27.60;87.10
26575;DHT22;67165;50.256;10.978;2023-06-10T10:40:49;27.60;87.20
26575;DHT22;67165;50.256;10.978;2023-06-10T10:43:16;27.60;87.20
26575;DHT22;67165;50.256;10.978;2023-06-10T10:45:42;27.80;86.20
26575;DHT22;67165;50.256;10.978;2023-06-10T10:48:10;27.70;86.20
26575;DHT22;67165;50.256;10.978;2023-06-10T10:50:38;27.70;86.20
26575;DHT22;67165;50.256;10.978;2023-06-10T10:53:05;27.50;87.00
26575;DHT22;67165;50.256;10.978;2023-06-10T10:55:31;27.40;87.40
26575;DHT22;67165;50.256;10.978;2023-06-10T10:58:10;27.10;87.50
26575;DHT22;67165;50.256;10.978;2023-06-10T11:00:44;27.10;86.80
26575;DHT22;67165;50.256;10.978;2023-06-10T11:03:14;26.90;87.10
26575;DHT22;67165;50.256;10.978;2023-06-10T11:05:41;27.00;87.70
26575;DHT22;67165;50.256;10.978;2023-06-10T11:08:10;26.90;87.10
26575;DHT22;67165;50.256;10.978;2023-06-10T11:10:37;26.80;87.80
26575;DHT22;67165;50.256;10.978;2023-06-10T11:13:13;26.60;88.20
26575;DHT22;67165;50.256;10.978;2023-06-10T11:15:44;26.50;88.50
26575;DHT22;67165;50.256;10.978;2023-06-10T11:28:41;27.50;88.40
26575;DHT22;67165;50.256;10.978;2023-06-10T11:31:09;27.50;87.90
26575;DHT22;67165;50.256;10.978;2023-06-10T11:33:44;27.30;88.50
26575;DHT22;67165;50.256;10.978;2023-06-10T11:36:09;27.20;90.10
26575;DHT22;67165;50.256;10.978;2023-06-10T11:38:35;27.10;89.30
26575;DHT22;67165;50.256;10.978;2023-06-10T11:41:02;27.10;89.50
26575;DHT22;67165;50.256;10.978;2023-06-10T11:43:28;27.40;90.30
26575;DHT22;67165;50.256;10.978;2023-06-10T11:45:55;27.40;90.00
26575;DHT22;67165;50.256;10.978;2023-06-10T11:48:21;27.20;90.70
26575;DHT22;67165;50.256;10.978;2023-06-10T11:50:47;27.20;91.40
26575;DHT22;67165;50.256;10.978;2023-06-10T11:53:13;27.00;91.90
26575;DHT22;67165;50.256;10.978;2023-06-10T11:55:47;26.80;93.00
26575;DHT22;67165;50.256;10.978;2023-06-10T11:58:22;26.60;93.30
26575;DHT22;67165;50.256;10.978;2023-06-10T12:03:15;27.20;93.00
26575;DHT22;67165;50.256;10.978;2023-06-10T12:05:53;27.00;93.70
26575;DHT22;67165;50.256;10.978;2023-06-10T12:08:19;26.70;93.50
26575;DHT22;67165;50.256;10.978;2023-06-10T12:10:45;26.40;94.70
26575;DHT22;67165;50.256;10.978;2023-06-10T12:13:11;26.50;94.50
26575;DHT22;67165;50.256;10.978;2023-06-10T12:15:37;26.40;94.50
26575;DHT22;67165;50.256;10.978;2023-06-10T12:18:03;26.30;96.00
26575;DHT22;67165;50.256;10.978;2023-06-10T12:20:30;26.40;96.10
26575;DHT22;67165;50.256;10.978;2023-06-10T12:23:01;26.30;95.40
26575;DHT22;67165;50.256;10.978;2023-06-10T12:25:33;26.10;96.90
26575;DHT22;67165;50.256;10.978;2023-06-10T12:27:59;25.60;98.00
26575;DHT22;67165;50.256;10.978;2023-06-10T12:30:26;25.10;98.00
26575;DHT22;67165;50.256;10.978;2023-06-10T12:32:52;24.60;98.00
26575;DHT22;67165;50.256;10.978;2023-06-10T12:35:23;24.30;98.00
26575;DHT22;67165;50.256;10.978;2023-06-10T12:40:34;23.40;98.00
26575;DHT22;67165;50.256;10.978;2023-06-10T12:43:01;23.20;98.00
26575;DHT22;67165;50.256;10.978;2023-06-10T12:50:59;22.70;98.00
26575;DHT22;67165;50.256;10.978;2023-06-10T12:53:26;22.60;98.00
26575;DHT22;67165;50.256;10.978;2023-06-10T12:55:52;22.50;98.00
26575;DHT22;67165;50.256;10.978;2023-06-10T12:58:19;22.40;98.00
26575;DHT22;67165;50.256;10.978;2023-06-10T13:00:45;22.40;98.00
26575;DHT22;67165;50.256;10.978;2023-06-10T13:03:11;22.50;98.00
26575;DHT22;67165;50.256;10.978;2023-06-10T13:05:37;22.50;98.00
26575;DHT22;67165;50.256;10.978;2023-06-10T13:08:07;22.40;98.00
26575;DHT22;67165;50.256;10.978;2023-06-10T13:10:36;22.40;98.00
26575;DHT22;67165;50.256;10.978;2023-06-10T13:13:02;22.40;98.00
26575;DHT22;67165;50.256;10.978;2023-06-10T13:15:32;22.40;98.00
26575;DHT22;67165;50.256;10.978;2023-06-10T13:18:02;22.50;98.00
26575;DHT22;67165;50.256;10.978;2023-06-10T13:20:29;22.60;98.00
26575;DHT22;67165;50.256;10.978;2023-06-10T13:22:54;22.70;98.00
26575;DHT22;67165;50.256;10.978;2023-06-10T13:25:20;22.90;98.00
26575;DHT22;67165;50.256;10.978;2023-06-10T13:27:46;23.00;98.00
26575;DHT22;67165;50.256;10.978;2023-06-10T13:30:11;23.20;98.00
26575;DHT22;67165;50.256;10.978;2023-06-10T13:32:37;23.40;98.00
26575;DHT22;67165;50.256;10.978;2023-06-10T13:35:03;23.60;98.00
26575;DHT22;67165;50.256;10.978;2023-06-10T13:37:29;23.90;98.00
26575;DHT22;67165;50.256;10.978;2023-06-10T13:39:55;24.20;98.00
26575;DHT22;67165;50.256;10.978;2023-06-10T13:42:21;24.40;98.00
26575;DHT22;67165;50.256;10.978;2023-06-10T13:44:47;24.60;98.00
26575;DHT22;67165;50.256;10.978;2023-06-10T13:47:14;24.70;98.00
26575;DHT22;67165;50.256;10.978;2023-06-10T13:49:40;24.70;98.00
26575;DHT22;67165;50.256;10.978;2023-06-10T13:52:06;24.60;98.00
26575;DHT22;67165;50.256;10.978;2023-06-10T13:54:32;24.60;98.00
26575;DHT22;67165;50.256;10.978;2023-06-10T13:56:58;24.40;98.00
26575;DHT22;67165;50.256;10.978;2023-06-10T13:59:24;24.20;98.00
26575;DHT22;67165;50.256;10.978;2023-06-10T14:01:50;24.10;98.00
26575;DHT22;67165;50.256;10.978;2023-06-10T14:04:15;24.10;98.00
26575;DHT22;67165;50.256;10.978;2023-06-10T14:06:41;24.10;98.00
26575;DHT22;67165;50.256;10.978;2023-06-10T14:09:07;24.00;98.00
26575;DHT22;67165;50.256;10.978;2023-06-10T14:11:32;24.00;98.00
26575;DHT22;67165;50.256;10.978;2023-06-10T14:13:58;24.10;98.00
26575;DHT22;67165;50.256;10.978;2023-06-10T14:16:24;24.30;98.00
26575;DHT22;67165;50.256;10.978;2023-06-10T14:18:50;24.50;98.00
26575;DHT22;67165;50.256;10.978;2023-06-10T14:21:19;24.60;98.00
26575;DHT22;67165;50.256;10.978;2023-06-10T14:23:45;24.70;98.00
26575;DHT22;67165;50.256;10.978;2023-06-10T14:26:11;24.70;98.00
26575;DHT22;67165;50.256;10.978;2023-06-10T14:28:36;24.70;98.00
26575;DHT22;67165;50.256;10.978;2023-06-10T14:31:02;24.70;98.00
26575;DHT22;67165;50.256;10.978;2023-06-10T14:33:28;24.60;98.00
26575;DHT22;67165;50.256;10.978;2023-06-10T14:35:54;24.60;98.00
26575;DHT22;67165;50.256;10.978;2023-06-10T14:38:20;24.80;98.00
26575;DHT22;67165;50.256;10.978;2023-06-10T14:40:46;25.00;98.00
26575;DHT22;67165;50.256;10.978;2023-06-10T14:43:11;25.30;98.00
26575;DHT22;67165;50.256;10.978;2023-06-10T14:45:41;25.60;98.00
26575;DHT22;67165;50.256;10.978;2023-06-10T14:48:07;25.90;98.00
26575;DHT22;67165;50.256;10.978;2023-06-10T14:50:34;26.20;98.00
26575;DHT22;67165;50.256;10.978;2023-06-10T14:53:00;26.30;98.00
26575;DHT22;67165;50.256;10.978;2023-06-10T14:55:26;26.20;98.00
26575;DHT22;67165;50.256;10.978;2023-06-10T14:57:52;26.00;98.00
26575;DHT22;67165;50.256;10.978;2023-06-10T15:00:17;25.90;98.00
26575;DHT22;67165;50.256;10.978;2023-06-10T15:02:47;26.00;98.00
26575;DHT22;67165;50.256;10.978;2023-06-10T15:05:14;25.80;98.00
26575;DHT22;67165;50.256;10.978;2023-06-10T15:07:41;25.60;98.00
26575;DHT22;67165;50.256;10.978;2023-06-10T15:10:07;25.40;98.00
26575;DHT22;67165;50.256;10.978;2023-06-10T15:12:33;25.30;98.00
26575;DHT22;67165;50.256;10.978;2023-06-10T15:14:58;25.20;98.00
26575;DHT22;67165;50.256;10.978;2023-06-10T15:17:24;25.30;98.00
26575;DHT22;67165;50.256;10.978;2023-06-10T15:19:49;25.20;98.00
26575;DHT22;67165;50.256;10.978;2023-06-10T15:22:15;25.30;98.00
26575;DHT22;67165;50.256;10.978;2023-06-10T15:24:41;25.30;98.00
26575;DHT22;67165;50.256;10.978;2023-06-10T15:27:06;25.40;98.00
26575;DHT22;67165;50.256;10.978;2023-06-10T15:29:32;25.40;98.00
26575;DHT22;67165;50.256;10.978;2023-06-10T15:31:58;25.30;98.00
26575;DHT22;67165;50.256;10.978;2023-06-10T15:34:23;25.30;98.00
26575;DHT22;67165;50.256;10.978;2023-06-10T15:36:49;25.30;98.00
26575;DHT22;67165;50.256;10.978;2023-06-10T15:39:14;25.40;98.00